Time,TemperatureF,DewpointF,PressureIn,WindDirection,WindDirectionDegrees,WindSpeedMPH,WindSpeedGustMPH,Humidity,HourlyPrecipIn,Conditions,Clouds,dailyrainin,SoftwareType,DateUTC
2013-06-02 00:00:00,41.0,-99.9,-100.00,North,-999,-999.0,-999.0,-999,-99.99,,,-99.99,,2013-06-02 07:00:00,
2013-06-02 01:00:00,41.0,-99.9,-100.00,West,269,4.0,5.0,-999,-99.99,,,-99.99,,2013-06-02 08:00:00,
2013-06-02 01:52:00,41.0,-99.9,-100.00,West,269,4.0,5.0,-999,-99.99,,,-99.99,,2013-06-02 08:52:00,
2013-06-02 02:00:00,42.0,-99.9,-100.00,West,275,3.0,8.0,-999,-99.99,,,-99.99,,2013-06-02 09:00:00,
2013-06-02 02:53:00,42.0,-99.9,-100.00,West,275,3.0,8.0,-999,-99.99,,,-99.99,,2013-06-02 09:53:00,
2013-06-02 03:00:00,40.0,-99.9,-100.00,WNW,283,1.0,4.0,-999,-99.99,,,-99.99,,2013-06-02 10:00:00,
2013-06-02 03:53:00,40.0,-99.9,-100.00,WNW,283,1.0,4.0,-999,-99.99,,,-99.99,,2013-06-02 10:53:00,
2013-06-02 04:00:00,39.0,-99.9,-100.00,WSW,245,2.0,5.0,-999,-99.99,,,0.00,,2013-06-02 11:00:00,
2013-06-02 04:52:00,39.0,-99.9,-100.00,WSW,245,2.0,5.0,-999,-99.99,,,0.00,,2013-06-02 11:52:00,
2013-06-02 05:00:00,39.0,-99.9,-100.00,WNW,296,1.0,3.0,-999,-99.99,,,0.00,,2013-06-02 12:00:00,
2013-06-02 05:53:00,39.0,-99.9,-100.00,WNW,296,1.0,3.0,-999,-99.99,,,0.00,,2013-06-02 12:53:00,
2013-06-02 06:00:00,39.0,-99.9,-100.00,WNW,288,1.0,3.0,-999,-99.99,,,-99.99,,2013-06-02 13:00:00,
2013-06-02 06:52:00,39.0,-99.9,-100.00,WNW,288,1.0,3.0,-999,-99.99,,,-99.99,,2013-06-02 13:52:00,
2013-06-02 07:00:00,39.0,-99.9,-100.00,West,265,1.0,7.0,-999,-99.99,,,-99.99,,2013-06-02 14:00:00,
2013-06-02 07:52:00,39.0,-99.9,-100.00,West,265,1.0,7.0,-999,-99.99,,,-99.99,,2013-06-02 14:52:00,
2013-06-02 08:00:00,39.0,-99.9,-100.00,North,353,3.0,9.0,-999,-99.99,,,0.00,,2013-06-02 15:00:00,
2013-06-02 08:53:00,39.0,-99.9,-100.00,North,353,3.0,9.0,-999,-99.99,,,0.00,,2013-06-02 15:53:00,
2013-06-02 09:00:00,40.0,-99.9,-100.00,West,271,2.0,6.0,-999,-99.99,,,-99.99,,2013-06-02 16:00:00,
2013-06-02 09:53:00,40.0,-99.9,-100.00,West,271,2.0,6.0,-999,-99.99,,,-99.99,,2013-06-02 16:53:00,
2013-06-02 10:00:00,40.0,-99.9,-100.00,WSW,255,3.0,9.0,-999,-99.99,,,-99.99,,2013-06-02 17:00:00,
2013-06-02 10:52:00,40.0,-99.9,-100.00,WSW,255,3.0,9.0,-999,-99.99,,,-99.99,,2013-06-02 17:52:00,
2013-06-02 11:00:00,42.0,-99.9,-100.00,WNW,297,3.0,7.0,-999,-99.99,,,-99.99,,2013-06-02 18:00:00,
2013-06-02 11:52:00,42.0,-99.9,-100.00,WNW,297,3.0,7.0,-999,-99.99,,,-99.99,,2013-06-02 18:52:00,
2013-06-02 12:00:00,43.0,-99.9,-100.00,WSW,253,6.0,23.0,-999,-99.99,,,-99.99,,2013-06-02 19:00:00,
2013-06-02 12:52:00,43.0,-99.9,-100.00,WSW,253,6.0,23.0,-999,-99.99,,,-99.99,,2013-06-02 19:52:00,
2013-06-02 13:00:00,42.0,-99.9,-100.00,West,265,5.0,22.0,-999,-99.99,,,-99.99,,2013-06-02 20:00:00,
2013-06-02 13:52:00,42.0,-99.9,-100.00,West,265,5.0,22.0,-999,-99.99,,,-99.99,,2013-06-02 20:52:00,
2013-06-02 14:00:00,43.0,-99.9,-100.00,West,272,4.0,18.0,-999,-99.99,,,-99.99,,2013-06-02 21:00:00,
2013-06-02 14:53:00,43.0,-99.9,-100.00,West,272,4.0,18.0,-999,-99.99,,,-99.99,,2013-06-02 21:53:00,
2013-06-02 15:00:00,44.0,-99.9,-100.00,SSW,196,6.0,35.0,-999,-99.99,,,-99.99,,2013-06-02 22:00:00,
2013-06-02 15:53:00,44.0,-99.9,-100.00,SSW,196,6.0,35.0,-999,-99.99,,,-99.99,,2013-06-02 22:53:00,
2013-06-02 16:00:00,43.0,-99.9,-100.00,NW,314,4.0,8.0,-999,-99.99,,,-99.99,,2013-06-02 23:00:00,
2013-06-02 16:53:00,43.0,-99.9,-100.00,NW,314,4.0,8.0,-999,-99.99,,,-99.99,,2013-06-02 23:53:00,
2013-06-02 17:00:00,43.0,-99.9,-100.00,WNW,288,5.0,13.0,-999,-99.99,,,0.00,,2013-06-03 00:00:00,
2013-06-02 17:42:00,43.0,-99.9,-100.00,WNW,288,5.0,13.0,-999,-99.99,,,0.00,,2013-06-03 00:42:00,
2013-06-02 17:52:00,43.0,-99.9,-100.00,WNW,288,5.0,13.0,-999,-99.99,,,0.00,,2013-06-03 00:52:00,
2013-06-02 18:00:00,43.0,-99.9,-100.00,WSW,237,6.0,13.0,-999,-99.99,,,-99.99,,2013-06-03 01:00:00,
2013-06-02 18:42:00,43.0,-99.9,-100.00,WSW,237,6.0,13.0,-999,-99.99,,,-99.99,,2013-06-03 01:42:00,
2013-06-02 18:52:00,43.0,-99.9,-100.00,WSW,237,6.0,13.0,-999,-99.99,,,-99.99,,2013-06-03 01:52:00,
2013-06-02 19:00:00,43.0,-99.9,-100.00,West,267,8.0,12.0,-999,-99.99,,,0.00,,2013-06-03 02:00:00,
2013-06-02 19:52:00,43.0,-99.9,-100.00,West,267,8.0,12.0,-999,-99.99,,,0.00,,2013-06-03 02:52:00,
2013-06-02 20:00:00,42.0,-99.9,-100.00,SW,232,5.0,10.0,-999,-99.99,,,-99.99,,2013-06-03 03:00:00,
2013-06-02 20:53:00,42.0,-99.9,-100.00,SW,232,5.0,10.0,-999,-99.99,,,-99.99,,2013-06-03 03:53:00,
2013-06-02 22:00:00,42.0,-99.9,-100.00,West,272,6.0,11.0,-999,-99.99,,,0.00,,2013-06-03 05:00:00,
2013-06-02 22:52:00,42.0,-99.9,-100.00,West,272,6.0,11.0,-999,-99.99,,,0.00,,2013-06-03 05:52:00,
2013-06-02 23:00:00,39.0,-99.9,-100.00,West,259,3.0,6.0,-999,-99.99,,,0.00,,2013-06-03 06:00:00,
2013-06-02 23:53:00,39.0,-99.9,-100.00,West,259,3.0,6.0,-999,-99.99,,,0.00,,2013-06-03 06:53:00,